sensor_id;sensor_type;location;lat;lon;timestamp;P1;durP1;ratioP1;P2;durP2;ratioP2
11039;SDS011;5573;49.592;8.662;2022-12-18T00:00:13;4.33;;;4.03;;
11039;SDS011;5573;49.592;8.662;2022-12-18T00:03:04;5.30;;;4.80;;
11039;SDS011;5573;49.592;8.662;2022-12-18T00:05:52;3.97;;;3.77;;
11039;SDS011;5573;49.592;8.662;2022-12-18T00:08:42;5.47;;;5.00;;
11039;SDS011;5573;49.592;8.662;2022-12-18T00:11:32;4.57;;;4.30;;
11039;SDS011;5573;49.592;8.662;2022-12-18T00:14:20;4.60;;;4.30;;
11039;SDS011;5573;49.592;8.662;2022-12-18T00:17:08;4.33;;;4.13;;
11039;SDS011;5573;49.592;8.662;2022-12-18T00:19:56;4.97;;;4.73;;
11039;SDS011;5573;49.592;8.662;2022-12-18T00:22:44;4.23;;;3.93;;
11039;SDS011;5573;49.592;8.662;2022-12-18T00:25:34;4.03;;;3.80;;
11039;SDS011;5573;49.592;8.662;2022-12-18T00:28:22;4.27;;;4.07;;
11039;SDS011;5573;49.592;8.662;2022-12-18T00:31:11;3.80;;;3.60;;
11039;SDS011;5573;49.592;8.662;2022-12-18T00:34:02;4.20;;;4.00;;
11039;SDS011;5573;49.592;8.662;2022-12-18T00:36:51;4.20;;;4.00;;
11039;SDS011;5573;49.592;8.662;2022-12-18T00:39:41;4.43;;;4.23;;
11039;SDS011;5573;49.592;8.662;2022-12-18T00:42:30;4.80;;;4.53;;
11039;SDS011;5573;49.592;8.662;2022-12-18T00:45:36;3.70;;;3.50;;
11039;SDS011;5573;49.592;8.662;2022-12-18T00:48:25;4.70;;;4.50;;
11039;SDS011;5573;49.592;8.662;2022-12-18T00:51:13;5.10;;;4.43;;
11039;SDS011;5573;49.592;8.662;2022-12-18T00:54:02;7.17;;;5.37;;
11039;SDS011;5573;49.592;8.662;2022-12-18T00:56:50;4.53;;;4.33;;
11039;SDS011;5573;49.592;8.662;2022-12-18T00:59:39;4.23;;;4.03;;
11039;SDS011;5573;49.592;8.662;2022-12-18T01:02:28;5.07;;;4.77;;
11039;SDS011;5573;49.592;8.662;2022-12-18T01:05:16;3.93;;;3.73;;
11039;SDS011;5573;49.592;8.662;2022-12-18T01:08:04;4.03;;;3.83;;
11039;SDS011;5573;49.592;8.662;2022-12-18T01:10:53;4.93;;;4.57;;
11039;SDS011;5573;49.592;8.662;2022-12-18T01:13:41;4.33;;;4.13;;
11039;SDS011;5573;49.592;8.662;2022-12-18T01:16:31;4.23;;;4.03;;
11039;SDS011;5573;49.592;8.662;2022-12-18T01:19:20;4.77;;;4.47;;
11039;SDS011;5573;49.592;8.662;2022-12-18T01:22:08;3.73;;;3.53;;
11039;SDS011;5573;49.592;8.662;2022-12-18T01:24:57;4.57;;;4.27;;
11039;SDS011;5573;49.592;8.662;2022-12-18T01:27:45;3.87;;;3.47;;
11039;SDS011;5573;49.592;8.662;2022-12-18T01:30:33;3.87;;;3.63;;
11039;SDS011;5573;49.592;8.662;2022-12-18T01:33:23;4.10;;;3.70;;
11039;SDS011;5573;49.592;8.662;2022-12-18T01:36:15;3.50;;;3.37;;
11039;SDS011;5573;49.592;8.662;2022-12-18T01:39:06;4.60;;;4.30;;
11039;SDS011;5573;49.592;8.662;2022-12-18T01:41:56;4.17;;;3.83;;
11039;SDS011;5573;49.592;8.662;2022-12-18T01:44:59;4.10;;;3.77;;
11039;SDS011;5573;49.592;8.662;2022-12-18T01:47:51;4.30;;;3.93;;
11039;SDS011;5573;49.592;8.662;2022-12-18T01:50:43;3.60;;;3.40;;
11039;SDS011;5573;49.592;8.662;2022-12-18T01:53:32;3.60;;;3.40;;
11039;SDS011;5573;49.592;8.662;2022-12-18T01:56:21;3.93;;;3.73;;
11039;SDS011;5573;49.592;8.662;2022-12-18T01:59:11;3.27;;;3.17;;
11039;SDS011;5573;49.592;8.662;2022-12-18T02:02:01;3.70;;;3.50;;
11039;SDS011;5573;49.592;8.662;2022-12-18T02:04:51;3.50;;;3.30;;
11039;SDS011;5573;49.592;8.662;2022-12-18T02:07:46;3.17;;;2.97;;
11039;SDS011;5573;49.592;8.662;2022-12-18T02:10:47;3.60;;;3.40;;
11039;SDS011;5573;49.592;8.662;2022-12-18T02:13:45;2.97;;;2.87;;
11039;SDS011;5573;49.592;8.662;2022-12-18T02:16:39;3.13;;;3.00;;
11039;SDS011;5573;49.592;8.662;2022-12-18T02:19:43;3.20;;;2.93;;
11039;SDS011;5573;49.592;8.662;2022-12-18T02:22:46;3.33;;;3.20;;
11039;SDS011;5573;49.592;8.662;2022-12-18T02:26:04;3.00;;;2.90;;
11039;SDS011;5573;49.592;8.662;2022-12-18T02:29:10;4.03;;;3.83;;
11039;SDS011;5573;49.592;8.662;2022-12-18T02:32:04;3.17;;;3.07;;
11039;SDS011;5573;49.592;8.662;2022-12-18T02:34:58;3.33;;;3.13;;
11039;SDS011;5573;49.592;8.662;2022-12-18T02:37:51;3.03;;;2.93;;
11039;SDS011;5573;49.592;8.662;2022-12-18T02:40:43;2.73;;;2.63;;
11039;SDS011;5573;49.592;8.662;2022-12-18T02:43:41;2.70;;;2.60;;
11039;SDS011;5573;49.592;8.662;2022-12-18T02:46:41;3.40;;;3.10;;
11039;SDS011;5573;49.592;8.662;2022-12-18T02:49:35;2.90;;;2.80;;
11039;SDS011;5573;49.592;8.662;2022-12-18T02:52:35;2.53;;;2.43;;
11039;SDS011;5573;49.592;8.662;2022-12-18T02:55:36;2.63;;;2.53;;
11039;SDS011;5573;49.592;8.662;2022-12-18T02:58:43;2.70;;;2.60;;
11039;SDS011;5573;49.592;8.662;2022-12-18T03:02:00;4.77;;;3.43;;
11039;SDS011;5573;49.592;8.662;2022-12-18T03:04:58;2.30;;;2.20;;
11039;SDS011;5573;49.592;8.662;2022-12-18T03:08:01;2.60;;;2.50;;
11039;SDS011;5573;49.592;8.662;2022-12-18T03:11:01;3.87;;;3.67;;
11039;SDS011;5573;49.592;8.662;2022-12-18T03:13:58;3.33;;;3.03;;
11039;SDS011;5573;49.592;8.662;2022-12-18T03:16:49;2.60;;;2.50;;
11039;SDS011;5573;49.592;8.662;2022-12-18T03:19:41;3.00;;;2.80;;
11039;SDS011;5573;49.592;8.662;2022-12-18T03:22:34;2.90;;;2.80;;
11039;SDS011;5573;49.592;8.662;2022-12-18T03:25:25;3.13;;;3.00;;
11039;SDS011;5573;49.592;8.662;2022-12-18T03:28:19;3.13;;;3.00;;
11039;SDS011;5573;49.592;8.662;2022-12-18T03:31:19;3.27;;;3.07;;
11039;SDS011;5573;49.592;8.662;2022-12-18T03:34:12;3.07;;;2.93;;
11039;SDS011;5573;49.592;8.662;2022-12-18T03:37:06;2.70;;;2.60;;
11039;SDS011;5573;49.592;8.662;2022-12-18T03:39:56;2.67;;;2.57;;
11039;SDS011;5573;49.592;8.662;2022-12-18T03:42:47;2.63;;;2.53;;
11039;SDS011;5573;49.592;8.662;2022-12-18T03:45:41;3.50;;;3.30;;
11039;SDS011;5573;49.592;8.662;2022-12-18T03:48:40;3.43;;;3.23;;
11039;SDS011;5573;49.592;8.662;2022-12-18T03:51:37;2.80;;;2.70;;
11039;SDS011;5573;49.592;8.662;2022-12-18T03:54:31;3.47;;;3.10;;
11039;SDS011;5573;49.592;8.662;2022-12-18T03:57:33;3.97;;;3.70;;
11039;SDS011;5573;49.592;8.662;2022-12-18T04:00:24;3.90;;;3.70;;
11039;SDS011;5573;49.592;8.662;2022-12-18T04:03:22;3.57;;;3.37;;
11039;SDS011;5573;49.592;8.662;2022-12-18T04:06:24;3.03;;;2.93;;
11039;SDS011;5573;49.592;8.662;2022-12-18T04:09:16;2.90;;;2.70;;
11039;SDS011;5573;49.592;8.662;2022-12-18T04:12:10;3.10;;;2.93;;
11039;SDS011;5573;49.592;8.662;2022-12-18T04:15:05;3.00;;;2.90;;
11039;SDS011;5573;49.592;8.662;2022-12-18T04:17:58;2.80;;;2.70;;
11039;SDS011;5573;49.592;8.662;2022-12-18T04:20:55;3.50;;;3.30;;
11039;SDS011;5573;49.592;8.662;2022-12-18T04:23:55;2.90;;;2.80;;
11039;SDS011;5573;49.592;8.662;2022-12-18T04:26:45;3.83;;;3.50;;
11039;SDS011;5573;49.592;8.662;2022-12-18T04:29:37;2.70;;;2.60;;
11039;SDS011;5573;49.592;8.662;2022-12-18T04:32:35;2.87;;;2.77;;
11039;SDS011;5573;49.592;8.662;2022-12-18T04:35:25;3.43;;;3.23;;
11039;SDS011;5573;49.592;8.662;2022-12-18T04:38:15;3.07;;;2.87;;
11039;SDS011;5573;49.592;8.662;2022-12-18T04:41:16;3.57;;;3.27;;
11039;SDS011;5573;49.592;8.662;2022-12-18T04:44:07;2.67;;;2.57;;
11039;SDS011;5573;49.592;8.662;2022-12-18T04:46:57;4.70;;;4.23;;
11039;SDS011;5573;49.592;8.662;2022-12-18T04:49:46;2.93;;;2.83;;
11039;SDS011;5573;49.592;8.662;2022-12-18T04:52:36;3.47;;;3.27;;
11039;SDS011;5573;49.592;8.662;2022-12-18T04:55:25;3.70;;;3.50;;
11039;SDS011;5573;49.592;8.662;2022-12-18T04:58:16;3.07;;;2.83;;
11039;SDS011;5573;49.592;8.662;2022-12-18T05:01:05;3.77;;;3.57;;
11039;SDS011;5573;49.592;8.662;2022-12-18T05:04:01;3.70;;;3.50;;
11039;SDS011;5573;49.592;8.662;2022-12-18T05:06:52;3.00;;;2.80;;
11039;SDS011;5573;49.592;8.662;2022-12-18T05:09:41;3.13;;;3.00;;
11039;SDS011;5573;49.592;8.662;2022-12-18T05:12:32;2.83;;;2.73;;
11039;SDS011;5573;49.592;8.662;2022-12-18T05:15:52;3.97;;;3.77;;
11039;SDS011;5573;49.592;8.662;2022-12-18T05:18:50;4.50;;;3.87;;
11039;SDS011;5573;49.592;8.662;2022-12-18T05:21:39;3.40;;;3.30;;
11039;SDS011;5573;49.592;8.662;2022-12-18T05:24:34;3.43;;;3.23;;
11039;SDS011;5573;49.592;8.662;2022-12-18T05:27:24;3.03;;;2.93;;
11039;SDS011;5573;49.592;8.662;2022-12-18T05:30:14;3.33;;;3.23;;
11039;SDS011;5573;49.592;8.662;2022-12-18T05:33:06;4.40;;;4.00;;
11039;SDS011;5573;49.592;8.662;2022-12-18T05:35:58;4.20;;;3.90;;
11039;SDS011;5573;49.592;8.662;2022-12-18T05:38:52;3.63;;;3.43;;
11039;SDS011;5573;49.592;8.662;2022-12-18T05:41:41;4.00;;;3.80;;
11039;SDS011;5573;49.592;8.662;2022-12-18T05:44:31;3.77;;;3.57;;
11039;SDS011;5573;49.592;8.662;2022-12-18T05:47:22;5.20;;;4.80;;
11039;SDS011;5573;49.592;8.662;2022-12-18T05:50:12;4.10;;;3.90;;
11039;SDS011;5573;49.592;8.662;2022-12-18T05:53:03;3.67;;;3.47;;
11039;SDS011;5573;49.592;8.662;2022-12-18T05:55:52;3.90;;;3.70;;
11039;SDS011;5573;49.592;8.662;2022-12-18T05:58:50;3.83;;;3.63;;
11039;SDS011;5573;49.592;8.662;2022-12-18T06:01:41;3.67;;;3.47;;
11039;SDS011;5573;49.592;8.662;2022-12-18T06:04:30;8.63;;;4.20;;
11039;SDS011;5573;49.592;8.662;2022-12-18T06:07:20;6.17;;;4.33;;
11039;SDS011;5573;49.592;8.662;2022-12-18T06:10:09;4.27;;;3.93;;
11039;SDS011;5573;49.592;8.662;2022-12-18T06:12:58;4.13;;;3.90;;
11039;SDS011;5573;49.592;8.662;2022-12-18T06:15:47;4.37;;;4.03;;
11039;SDS011;5573;49.592;8.662;2022-12-18T06:18:35;4.23;;;3.93;;
11039;SDS011;5573;49.592;8.662;2022-12-18T06:21:24;3.97;;;3.77;;
11039;SDS011;5573;49.592;8.662;2022-12-18T06:24:14;4.10;;;3.83;;
11039;SDS011;5573;49.592;8.662;2022-12-18T06:27:03;4.80;;;3.87;;
11039;SDS011;5573;49.592;8.662;2022-12-18T06:29:53;4.10;;;3.83;;
11039;SDS011;5573;49.592;8.662;2022-12-18T06:32:46;11.30;;;4.27;;
11039;SDS011;5573;49.592;8.662;2022-12-18T06:35:46;4.07;;;3.87;;
11039;SDS011;5573;49.592;8.662;2022-12-18T06:38:36;3.93;;;3.73;;
11039;SDS011;5573;49.592;8.662;2022-12-18T06:41:28;4.27;;;4.00;;
11039;SDS011;5573;49.592;8.662;2022-12-18T06:44:17;4.60;;;4.30;;
11039;SDS011;5573;49.592;8.662;2022-12-18T06:47:06;5.70;;;5.23;;
11039;SDS011;5573;49.592;8.662;2022-12-18T06:49:55;3.80;;;3.60;;
11039;SDS011;5573;49.592;8.662;2022-12-18T06:52:44;3.63;;;3.43;;
11039;SDS011;5573;49.592;8.662;2022-12-18T06:55:33;4.23;;;4.03;;
11039;SDS011;5573;49.592;8.662;2022-12-18T06:58:23;3.90;;;3.70;;
11039;SDS011;5573;49.592;8.662;2022-12-18T07:01:13;4.50;;;4.27;;
11039;SDS011;5573;49.592;8.662;2022-12-18T07:03:42;4.03;;;3.83;;
11039;SDS011;5573;49.592;8.662;2022-12-18T07:06:15;5.63;;;5.10;;
11039;SDS011;5573;49.592;8.662;2022-12-18T07:08:45;4.63;;;4.33;;
11039;SDS011;5573;49.592;8.662;2022-12-18T07:11:14;4.10;;;3.87;;
11039;SDS011;5573;49.592;8.662;2022-12-18T07:13:45;4.63;;;4.40;;
11039;SDS011;5573;49.592;8.662;2022-12-18T07:16:15;4.70;;;4.40;;
11039;SDS011;5573;49.592;8.662;2022-12-18T07:18:51;4.53;;;4.23;;
11039;SDS011;5573;49.592;8.662;2022-12-18T07:21:20;4.07;;;3.87;;
11039;SDS011;5573;49.592;8.662;2022-12-18T07:23:50;4.30;;;4.10;;
11039;SDS011;5573;49.592;8.662;2022-12-18T07:26:20;4.53;;;4.23;;
11039;SDS011;5573;49.592;8.662;2022-12-18T07:28:53;4.70;;;4.30;;
11039;SDS011;5573;49.592;8.662;2022-12-18T07:31:25;4.63;;;4.33;;
11039;SDS011;5573;49.592;8.662;2022-12-18T07:33:55;3.80;;;3.60;;
11039;SDS011;5573;49.592;8.662;2022-12-18T07:36:24;4.60;;;4.40;;
11039;SDS011;5573;49.592;8.662;2022-12-18T07:38:54;4.40;;;4.17;;
11039;SDS011;5573;49.592;8.662;2022-12-18T07:41:24;4.77;;;4.23;;
11039;SDS011;5573;49.592;8.662;2022-12-18T07:43:55;4.23;;;4.03;;
11039;SDS011;5573;49.592;8.662;2022-12-18T07:46:29;4.67;;;4.47;;
11039;SDS011;5573;49.592;8.662;2022-12-18T07:49:01;3.63;;;3.47;;
11039;SDS011;5573;49.592;8.662;2022-12-18T07:51:44;3.93;;;3.73;;
11039;SDS011;5573;49.592;8.662;2022-12-18T07:54:21;3.67;;;3.47;;
11039;SDS011;5573;49.592;8.662;2022-12-18T07:57:00;4.03;;;3.80;;
11039;SDS011;5573;49.592;8.662;2022-12-18T08:00:04;4.43;;;4.23;;
11039;SDS011;5573;49.592;8.662;2022-12-18T08:02:41;4.13;;;3.93;;
11039;SDS011;5573;49.592;8.662;2022-12-18T08:05:11;3.90;;;3.70;;
11039;SDS011;5573;49.592;8.662;2022-12-18T08:07:43;3.83;;;3.37;;
11039;SDS011;5573;49.592;8.662;2022-12-18T08:10:13;5.07;;;4.73;;
11039;SDS011;5573;49.592;8.662;2022-12-18T08:12:42;3.87;;;3.67;;
11039;SDS011;5573;49.592;8.662;2022-12-18T08:15:12;4.53;;;4.23;;
11039;SDS011;5573;49.592;8.662;2022-12-18T08:17:46;4.13;;;3.80;;
11039;SDS011;5573;49.592;8.662;2022-12-18T08:20:24;4.57;;;4.20;;
11039;SDS011;5573;49.592;8.662;2022-12-18T08:22:59;4.73;;;4.53;;
11039;SDS011;5573;49.592;8.662;2022-12-18T08:25:30;4.33;;;4.13;;
11039;SDS011;5573;49.592;8.662;2022-12-18T08:28:00;4.00;;;3.80;;
11039;SDS011;5573;49.592;8.662;2022-12-18T08:30:30;4.23;;;4.03;;
11039;SDS011;5573;49.592;8.662;2022-12-18T08:33:05;4.30;;;4.10;;
11039;SDS011;5573;49.592;8.662;2022-12-18T08:35:38;4.03;;;3.83;;
11039;SDS011;5573;49.592;8.662;2022-12-18T08:38:12;4.63;;;4.33;;
11039;SDS011;5573;49.592;8.662;2022-12-18T08:40:44;4.63;;;4.23;;
11039;SDS011;5573;49.592;8.662;2022-12-18T08:43:14;5.80;;;4.50;;
11039;SDS011;5573;49.592;8.662;2022-12-18T08:46:15;4.00;;;3.80;;
11039;SDS011;5573;49.592;8.662;2022-12-18T08:48:53;5.87;;;5.07;;
11039;SDS011;5573;49.592;8.662;2022-12-18T08:51:33;4.43;;;4.13;;
11039;SDS011;5573;49.592;8.662;2022-12-18T08:54:21;4.03;;;3.83;;
11039;SDS011;5573;49.592;8.662;2022-12-18T08:56:59;4.50;;;4.30;;
11039;SDS011;5573;49.592;8.662;2022-12-18T08:59:32;5.13;;;4.83;;
11039;SDS011;5573;49.592;8.662;2022-12-18T09:02:05;4.20;;;4.00;;
11039;SDS011;5573;49.592;8.662;2022-12-18T09:04:43;3.93;;;3.73;;
11039;SDS011;5573;49.592;8.662;2022-12-18T09:07:25;4.87;;;4.50;;
11039;SDS011;5573;49.592;8.662;2022-12-18T09:09:54;4.70;;;4.43;;
11039;SDS011;5573;49.592;8.662;2022-12-18T09:12:23;4.27;;;4.00;;
11039;SDS011;5573;49.592;8.662;2022-12-18T09:14:51;5.10;;;4.80;;
11039;SDS011;5573;49.592;8.662;2022-12-18T09:17:21;4.50;;;4.23;;
11039;SDS011;5573;49.592;8.662;2022-12-18T09:19:50;4.73;;;4.43;;
11039;SDS011;5573;49.592;8.662;2022-12-18T09:22:18;5.27;;;4.87;;
11039;SDS011;5573;49.592;8.662;2022-12-18T09:24:48;4.30;;;4.07;;
11039;SDS011;5573;49.592;8.662;2022-12-18T09:27:16;5.37;;;5.07;;
11039;SDS011;5573;49.592;8.662;2022-12-18T09:29:44;5.20;;;4.90;;
11039;SDS011;5573;49.592;8.662;2022-12-18T09:32:12;10.07;;;5.40;;
11039;SDS011;5573;49.592;8.662;2022-12-18T09:34:49;5.67;;;5.27;;
11039;SDS011;5573;49.592;8.662;2022-12-18T09:37:17;6.50;;;6.10;;
11039;SDS011;5573;49.592;8.662;2022-12-18T09:39:45;6.67;;;6.20;;
11039;SDS011;5573;49.592;8.662;2022-12-18T09:42:16;6.10;;;5.80;;
11039;SDS011;5573;49.592;8.662;2022-12-18T09:44:48;14.70;;;6.80;;
11039;SDS011;5573;49.592;8.662;2022-12-18T09:47:18;6.87;;;6.27;;
11039;SDS011;5573;49.592;8.662;2022-12-18T09:49:53;6.47;;;6.13;;
11039;SDS011;5573;49.592;8.662;2022-12-18T09:52:26;6.70;;;6.03;;
11039;SDS011;5573;49.592;8.662;2022-12-18T09:55:00;6.37;;;5.97;;
11039;SDS011;5573;49.592;8.662;2022-12-18T09:57:34;6.00;;;5.70;;
11039;SDS011;5573;49.592;8.662;2022-12-18T10:00:11;6.77;;;6.30;;
11039;SDS011;5573;49.592;8.662;2022-12-18T10:02:45;5.37;;;5.13;;
11039;SDS011;5573;49.592;8.662;2022-12-18T10:05:16;6.47;;;6.03;;
11039;SDS011;5573;49.592;8.662;2022-12-18T10:07:50;7.43;;;6.83;;
11039;SDS011;5573;49.592;8.662;2022-12-18T10:10:31;8.20;;;7.57;;
11039;SDS011;5573;49.592;8.662;2022-12-18T10:13:07;7.50;;;6.90;;
11039;SDS011;5573;49.592;8.662;2022-12-18T10:15:47;7.17;;;6.70;;
11039;SDS011;5573;49.592;8.662;2022-12-18T10:18:25;7.50;;;6.57;;
11039;SDS011;5573;49.592;8.662;2022-12-18T10:21:10;9.27;;;8.57;;
11039;SDS011;5573;49.592;8.662;2022-12-18T10:23:43;7.30;;;6.90;;
11039;SDS011;5573;49.592;8.662;2022-12-18T10:26:19;7.03;;;6.53;;
11039;SDS011;5573;49.592;8.662;2022-12-18T10:28:48;9.93;;;9.03;;
11039;SDS011;5573;49.592;8.662;2022-12-18T10:31:18;9.60;;;8.90;;
11039;SDS011;5573;49.592;8.662;2022-12-18T10:33:50;7.27;;;6.87;;
11039;SDS011;5573;49.592;8.662;2022-12-18T10:36:24;8.37;;;7.83;;
11039;SDS011;5573;49.592;8.662;2022-12-18T10:38:52;8.43;;;7.93;;
11039;SDS011;5573;49.592;8.662;2022-12-18T10:41:24;9.73;;;8.87;;
11039;SDS011;5573;49.592;8.662;2022-12-18T10:44:10;9.97;;;9.37;;
11039;SDS011;5573;49.592;8.662;2022-12-18T10:46:39;8.50;;;8.00;;
11039;SDS011;5573;49.592;8.662;2022-12-18T10:49:18;9.60;;;9.07;;
11039;SDS011;5573;49.592;8.662;2022-12-18T10:51:50;8.93;;;8.40;;
11039;SDS011;5573;49.592;8.662;2022-12-18T10:54:31;11.00;;;9.37;;
11039;SDS011;5573;49.592;8.662;2022-12-18T10:57:13;9.93;;;9.43;;
11039;SDS011;5573;49.592;8.662;2022-12-18T10:59:49;12.67;;;8.30;;
11039;SDS011;5573;49.592;8.662;2022-12-18T11:02:25;10.77;;;10.10;;
11039;SDS011;5573;49.592;8.662;2022-12-18T11:04:58;8.00;;;7.50;;
11039;SDS011;5573;49.592;8.662;2022-12-18T11:07:30;10.17;;;9.47;;
11039;SDS011;5573;49.592;8.662;2022-12-18T11:10:15;8.67;;;8.17;;
11039;SDS011;5573;49.592;8.662;2022-12-18T11:12:44;8.77;;;8.07;;
11039;SDS011;5573;49.592;8.662;2022-12-18T11:15:15;9.03;;;8.43;;
11039;SDS011;5573;49.592;8.662;2022-12-18T11:17:47;16.47;;;8.57;;
11039;SDS011;5573;49.592;8.662;2022-12-18T11:20:23;9.63;;;8.70;;
11039;SDS011;5573;49.592;8.662;2022-12-18T11:22:59;9.40;;;8.77;;
11039;SDS011;5573;49.592;8.662;2022-12-18T11:25:30;10.93;;;10.17;;
11039;SDS011;5573;49.592;8.662;2022-12-18T11:28:02;12.10;;;10.37;;
11039;SDS011;5573;49.592;8.662;2022-12-18T11:30:33;13.17;;;11.70;;
11039;SDS011;5573;49.592;8.662;2022-12-18T11:33:03;9.73;;;9.03;;
11039;SDS011;5573;49.592;8.662;2022-12-18T11:35:45;10.67;;;9.97;;
11039;SDS011;5573;49.592;8.662;2022-12-18T11:38:20;11.23;;;10.50;;
11039;SDS011;5573;49.592;8.662;2022-12-18T11:40:53;11.37;;;10.73;;
11039;SDS011;5573;49.592;8.662;2022-12-18T11:43:27;11.67;;;10.97;;
11039;SDS011;5573;49.592;8.662;2022-12-18T11:45:59;8.33;;;7.90;;
11039;SDS011;5573;49.592;8.662;2022-12-18T11:48:32;10.80;;;9.90;;
11039;SDS011;5573;49.592;8.662;2022-12-18T11:51:09;10.57;;;9.33;;
11039;SDS011;5573;49.592;8.662;2022-12-18T11:53:46;10.43;;;9.53;;
11039;SDS011;5573;49.592;8.662;2022-12-18T11:56:22;10.33;;;9.63;;
11039;SDS011;5573;49.592;8.662;2022-12-18T11:58:59;15.13;;;12.80;;
11039;SDS011;5573;49.592;8.662;2022-12-18T12:01:40;9.40;;;8.70;;
11039;SDS011;5573;49.592;8.662;2022-12-18T12:04:29;12.30;;;11.50;;
11039;SDS011;5573;49.592;8.662;2022-12-18T12:07:10;11.80;;;10.43;;
11039;SDS011;5573;49.592;8.662;2022-12-18T12:09:49;11.20;;;10.53;;
11039;SDS011;5573;49.592;8.662;2022-12-18T12:12:29;13.57;;;12.57;;
11039;SDS011;5573;49.592;8.662;2022-12-18T12:15:17;13.07;;;12.20;;
11039;SDS011;5573;49.592;8.662;2022-12-18T12:17:56;11.50;;;10.80;;
11039;SDS011;5573;49.592;8.662;2022-12-18T12:20:40;11.87;;;11.27;;
11039;SDS011;5573;49.592;8.662;2022-12-18T12:23:15;13.60;;;12.47;;
11039;SDS011;5573;49.592;8.662;2022-12-18T12:25:57;13.97;;;13.17;;
11039;SDS011;5573;49.592;8.662;2022-12-18T12:28:36;13.83;;;12.77;;
11039;SDS011;5573;49.592;8.662;2022-12-18T12:31:20;13.50;;;12.67;;
11039;SDS011;5573;49.592;8.662;2022-12-18T12:33:58;13.40;;;12.70;;
11039;SDS011;5573;49.592;8.662;2022-12-18T12:36:36;11.73;;;11.07;;
11039;SDS011;5573;49.592;8.662;2022-12-18T12:39:13;14.70;;;13.63;;
11039;SDS011;5573;49.592;8.662;2022-12-18T12:41:46;18.97;;;17.67;;
11039;SDS011;5573;49.592;8.662;2022-12-18T12:44:33;15.23;;;14.20;;
11039;SDS011;5573;49.592;8.662;2022-12-18T12:47:10;15.43;;;14.43;;
11039;SDS011;5573;49.592;8.662;2022-12-18T12:49:46;15.00;;;13.60;;
11039;SDS011;5573;49.592;8.662;2022-12-18T12:52:18;15.40;;;14.53;;
11039;SDS011;5573;49.592;8.662;2022-12-18T12:54:54;16.00;;;15.10;;
11039;SDS011;5573;49.592;8.662;2022-12-18T12:57:29;15.73;;;14.60;;
11039;SDS011;5573;49.592;8.662;2022-12-18T13:00:01;17.37;;;16.03;;
11039;SDS011;5573;49.592;8.662;2022-12-18T13:02:36;20.80;;;18.67;;
11039;SDS011;5573;49.592;8.662;2022-12-18T13:05:14;18.07;;;16.53;;
11039;SDS011;5573;49.592;8.662;2022-12-18T13:07:49;17.37;;;15.10;;
11039;SDS011;5573;49.592;8.662;2022-12-18T13:10:32;15.57;;;14.47;;
11039;SDS011;5573;49.592;8.662;2022-12-18T13:13:03;14.20;;;13.23;;
11039;SDS011;5573;49.592;8.662;2022-12-18T13:15:37;16.90;;;15.90;;
11039;SDS011;5573;49.592;8.662;2022-12-18T13:18:11;15.60;;;14.60;;
11039;SDS011;5573;49.592;8.662;2022-12-18T13:20:42;13.77;;;12.67;;
11039;SDS011;5573;49.592;8.662;2022-12-18T13:23:31;15.53;;;14.33;;
11039;SDS011;5573;49.592;8.662;2022-12-18T13:28:58;13.67;;;12.80;;
11039;SDS011;5573;49.592;8.662;2022-12-18T13:34:28;14.40;;;13.07;;
11039;SDS011;5573;49.592;8.662;2022-12-18T13:39:59;13.90;;;12.70;;
11039;SDS011;5573;49.592;8.662;2022-12-18T13:45:37;14.77;;;13.83;;
11039;SDS011;5573;49.592;8.662;2022-12-18T13:48:14;15.53;;;14.27;;
11039;SDS011;5573;49.592;8.662;2022-12-18T13:50:48;16.90;;;15.87;;
11039;SDS011;5573;49.592;8.662;2022-12-18T13:53:21;17.27;;;15.80;;
11039;SDS011;5573;49.592;8.662;2022-12-18T13:55:53;16.43;;;15.17;;
11039;SDS011;5573;49.592;8.662;2022-12-18T13:58:21;17.43;;;16.33;;
11039;SDS011;5573;49.592;8.662;2022-12-18T14:00:51;16.90;;;15.90;;
11039;SDS011;5573;49.592;8.662;2022-12-18T14:03:20;17.67;;;16.37;;
11039;SDS011;5573;49.592;8.662;2022-12-18T14:05:52;18.20;;;16.90;;
11039;SDS011;5573;49.592;8.662;2022-12-18T14:08:23;15.63;;;14.77;;
11039;SDS011;5573;49.592;8.662;2022-12-18T14:10:54;15.43;;;14.27;;
11039;SDS011;5573;49.592;8.662;2022-12-18T14:13:24;16.97;;;15.97;;
11039;SDS011;5573;49.592;8.662;2022-12-18T14:15:56;18.37;;;17.30;;
11039;SDS011;5573;49.592;8.662;2022-12-18T14:18:31;16.73;;;15.47;;
11039;SDS011;5573;49.592;8.662;2022-12-18T14:21:06;17.40;;;16.40;;
11039;SDS011;5573;49.592;8.662;2022-12-18T14:23:43;17.67;;;16.63;;
11039;SDS011;5573;49.592;8.662;2022-12-18T14:26:21;20.83;;;19.57;;
11039;SDS011;5573;49.592;8.662;2022-12-18T14:28:53;16.77;;;15.57;;
11039;SDS011;5573;49.592;8.662;2022-12-18T14:31:24;20.10;;;18.40;;
11039;SDS011;5573;49.592;8.662;2022-12-18T14:33:53;18.73;;;17.63;;
11039;SDS011;5573;49.592;8.662;2022-12-18T14:36:22;18.97;;;17.67;;
11039;SDS011;5573;49.592;8.662;2022-12-18T14:38:52;19.73;;;18.43;;
11039;SDS011;5573;49.592;8.662;2022-12-18T14:41:21;17.73;;;16.73;;
11039;SDS011;5573;49.592;8.662;2022-12-18T14:43:50;16.97;;;15.97;;
11039;SDS011;5573;49.592;8.662;2022-12-18T14:46:32;20.37;;;18.63;;
11039;SDS011;5573;49.592;8.662;2022-12-18T14:49:03;19.13;;;17.60;;
11039;SDS011;5573;49.592;8.662;2022-12-18T14:51:46;18.03;;;16.83;;
11039;SDS011;5573;49.592;8.662;2022-12-18T14:54:16;18.30;;;17.27;;
11039;SDS011;5573;49.592;8.662;2022-12-18T14:56:45;16.10;;;15.13;;
11039;SDS011;5573;49.592;8.662;2022-12-18T14:59:16;16.97;;;15.43;;
11039;SDS011;5573;49.592;8.662;2022-12-18T15:01:54;17.10;;;15.90;;
11039;SDS011;5573;49.592;8.662;2022-12-18T15:04:28;17.90;;;16.83;;
11039;SDS011;5573;49.592;8.662;2022-12-18T15:07:05;15.50;;;14.43;;
11039;SDS011;5573;49.592;8.662;2022-12-18T15:09:39;15.37;;;14.17;;
11039;SDS011;5573;49.592;8.662;2022-12-18T15:12:24;17.70;;;16.53;;
11039;SDS011;5573;49.592;8.662;2022-12-18T15:14:59;13.53;;;12.83;;
11039;SDS011;5573;49.592;8.662;2022-12-18T15:17:28;16.47;;;15.47;;
11039;SDS011;5573;49.592;8.662;2022-12-18T15:19:58;16.33;;;15.23;;
11039;SDS011;5573;49.592;8.662;2022-12-18T15:22:29;16.13;;;14.87;;
11039;SDS011;5573;49.592;8.662;2022-12-18T15:24:58;16.40;;;15.47;;
11039;SDS011;5573;49.592;8.662;2022-12-18T15:27:28;16.27;;;15.17;;
11039;SDS011;5573;49.592;8.662;2022-12-18T15:30:02;14.80;;;13.80;;
11039;SDS011;5573;49.592;8.662;2022-12-18T15:32:45;13.03;;;12.23;;
11039;SDS011;5573;49.592;8.662;2022-12-18T15:35:16;15.60;;;14.17;;
11039;SDS011;5573;49.592;8.662;2022-12-18T15:37:46;13.87;;;13.10;;
11039;SDS011;5573;49.592;8.662;2022-12-18T15:40:15;12.93;;;12.03;;
11039;SDS011;5573;49.592;8.662;2022-12-18T15:42:45;13.03;;;12.20;;
11039;SDS011;5573;49.592;8.662;2022-12-18T15:45:32;12.90;;;11.80;;
11039;SDS011;5573;49.592;8.662;2022-12-18T15:48:01;12.20;;;11.43;;
11039;SDS011;5573;49.592;8.662;2022-12-18T15:50:29;13.70;;;12.87;;
11039;SDS011;5573;49.592;8.662;2022-12-18T15:52:57;11.67;;;10.93;;
11039;SDS011;5573;49.592;8.662;2022-12-18T15:55:25;10.67;;;9.87;;
11039;SDS011;5573;49.592;8.662;2022-12-18T15:58:10;11.67;;;11.00;;
11039;SDS011;5573;49.592;8.662;2022-12-18T16:00:40;11.27;;;10.67;;
11039;SDS011;5573;49.592;8.662;2022-12-18T16:03:09;12.43;;;11.53;;
11039;SDS011;5573;49.592;8.662;2022-12-18T16:05:37;10.93;;;10.33;;
11039;SDS011;5573;49.592;8.662;2022-12-18T16:08:05;11.87;;;11.17;;
11039;SDS011;5573;49.592;8.662;2022-12-18T16:10:33;11.00;;;10.30;;
11039;SDS011;5573;49.592;8.662;2022-12-18T16:13:02;10.77;;;10.20;;
11039;SDS011;5573;49.592;8.662;2022-12-18T16:15:29;12.77;;;11.97;;
11039;SDS011;5573;49.592;8.662;2022-12-18T16:17:57;12.47;;;11.77;;
11039;SDS011;5573;49.592;8.662;2022-12-18T16:20:26;13.17;;;12.43;;
11039;SDS011;5573;49.592;8.662;2022-12-18T16:22:54;13.80;;;12.87;;
11039;SDS011;5573;49.592;8.662;2022-12-18T16:25:23;13.33;;;12.37;;
11039;SDS011;5573;49.592;8.662;2022-12-18T16:27:52;15.20;;;14.40;;
11039;SDS011;5573;49.592;8.662;2022-12-18T16:30:21;15.13;;;14.23;;